RJAA(METAR)
07/17 15:00
METAR RJAA 170600Z VRB03KT 9999 FEW015 BKN025 26/22 Q1013 BECMG
11005KT RMK 1CU015 5CU025 A2992=
戻る
トップページへ戻る
IMOC Co,.Ltd.